createdAt,value
2018-03-18T00:00:14.872Z,6.40
2018-03-18T00:02:46.761Z,6.30
2018-03-18T00:05:16.096Z,6.20
2018-03-18T00:07:44.686Z,6.20
2018-03-18T00:10:14.190Z,6.30
2018-03-18T00:12:43.316Z,6.20
2018-03-18T00:15:25.286Z,6.30
2018-03-18T00:17:53.771Z,6.30
2018-03-18T00:20:22.240Z,6.40
2018-03-18T00:22:50.720Z,6.30
2018-03-18T00:25:19.027Z,6.40
2018-03-18T00:27:47.321Z,6.40
2018-03-18T00:30:16.000Z,6.50
2018-03-18T00:32:45.831Z,6.50
2018-03-18T00:35:14.504Z,6.50
2018-03-18T00:37:44.472Z,6.60
2018-03-18T00:40:12.863Z,6.60
2018-03-18T00:42:41.192Z,6.80
2018-03-18T00:45:10.376Z,6.70
2018-03-18T00:47:39.568Z,6.60
2018-03-18T00:50:09.540Z,6.50
2018-03-18T00:52:38.775Z,6.50
2018-03-18T00:55:08.709Z,6.70
2018-03-18T00:57:37.862Z,6.70
2018-03-18T01:00:12.263Z,6.70
2018-03-18T01:02:40.689Z,6.70
2018-03-18T01:05:09.825Z,6.60
2018-03-18T01:07:38.944Z,6.60
2018-03-18T01:10:13.962Z,6.50
2018-03-18T01:12:42.400Z,6.50
2018-03-18T01:15:11.562Z,6.50
2018-03-18T01:17:40.033Z,6.50
2018-03-18T01:20:08.409Z,6.60
2018-03-18T01:22:36.889Z,6.60
2018-03-18T01:25:05.474Z,6.60
2018-03-18T01:27:33.804Z,6.60
2018-03-18T01:30:03.876Z,6.60
2018-03-18T01:32:47.961Z,6.60
2018-03-18T01:35:17.022Z,6.60
2018-03-18T01:38:05.084Z,6.50
2018-03-18T01:40:32.926Z,6.60
2018-03-18T01:43:02.842Z,6.60
2018-03-18T01:45:31.410Z,6.60
2018-03-18T01:47:59.898Z,6.60
2018-03-18T01:50:28.241Z,6.60
2018-03-18T01:53:09.142Z,6.90
2018-03-18T01:55:55.166Z,6.80
2018-03-18T01:58:23.565Z,6.90
2018-03-18T02:00:51.993Z,6.90
2018-03-18T02:03:20.594Z,6.90
2018-03-18T02:05:49.060Z,6.90
2018-03-18T02:08:17.537Z,7.00
2018-03-18T02:10:46.024Z,7.10
2018-03-18T02:13:14.350Z,7.20
2018-03-18T02:15:48.751Z,7.30
2018-03-18T02:18:17.193Z,7.40
2018-03-18T02:20:45.783Z,7.40
2018-03-18T02:23:14.164Z,7.30
2018-03-18T02:25:42.636Z,7.20
2018-03-18T02:28:11.119Z,7.20
2018-03-18T02:30:39.599Z,7.20
2018-03-18T02:33:07.904Z,7.20
2018-03-18T02:35:36.297Z,7.20
2018-03-18T02:38:04.758Z,7.20
2018-03-18T02:40:33.863Z,7.20
2018-03-18T02:43:03.442Z,7.20
2018-03-18T02:45:31.926Z,7.20
2018-03-18T02:48:00.248Z,7.30
2018-03-18T02:50:28.775Z,7.40
2018-03-18T02:52:57.197Z,7.50
2018-03-18T02:55:25.648Z,7.50
2018-03-18T02:57:54.937Z,7.40
2018-03-18T03:00:23.520Z,7.30
2018-03-18T03:02:51.833Z,7.30
2018-03-18T03:05:20.276Z,7.20
2018-03-18T03:07:48.754Z,7.20
2018-03-18T03:10:17.185Z,7.20
2018-03-18T03:12:46.434Z,7.10
2018-03-18T03:15:14.916Z,7.10
2018-03-18T03:17:47.014Z,7.20
2018-03-18T03:20:16.012Z,7.20
2018-03-18T03:22:45.991Z,7.40
2018-03-18T03:25:14.368Z,7.40
2018-03-18T03:27:43.157Z,7.50
2018-03-18T03:30:11.584Z,7.60
2018-03-18T03:32:40.733Z,7.80
2018-03-18T03:35:21.988Z,7.70
2018-03-18T03:37:51.354Z,8.00
2018-03-18T03:40:27.233Z,8.00
2018-03-18T03:42:56.464Z,8.10
2018-03-18T03:45:43.636Z,8.10
2018-03-18T03:48:13.506Z,8.00
2018-03-18T03:50:41.985Z,8.00
2018-03-18T03:53:10.462Z,7.90
2018-03-18T03:55:38.913Z,7.70
2018-03-18T03:58:08.142Z,7.60
2018-03-18T04:00:36.516Z,7.60
2018-03-18T04:03:06.430Z,7.50
2018-03-18T04:05:34.720Z,7.40
2018-03-18T04:08:03.121Z,7.30
2018-03-18T04:10:33.615Z,7.20
2018-03-18T04:13:06.352Z,7.10
2018-03-18T04:15:35.833Z,7.00
2018-03-18T04:18:10.466Z,7.00
2018-03-18T04:20:41.237Z,6.80
2018-03-18T04:23:09.636Z,6.80
2018-03-18T04:25:38.072Z,6.80
2018-03-18T04:28:07.322Z,6.70
2018-03-18T04:30:35.710Z,6.70
2018-03-18T04:33:05.011Z,6.70
2018-03-18T04:35:34.435Z,6.70
2018-03-18T04:38:02.773Z,6.70
2018-03-18T04:40:31.264Z,6.60
2018-03-18T04:42:59.995Z,6.60
2018-03-18T04:45:29.064Z,6.50
2018-03-18T04:47:57.519Z,6.50
2018-03-18T04:50:32.657Z,6.50
2018-03-18T04:53:01.578Z,6.40
2018-03-18T04:55:30.444Z,6.40
2018-03-18T04:57:58.921Z,6.30
2018-03-18T05:00:33.454Z,6.30
2018-03-18T05:03:02.024Z,6.40
2018-03-18T05:05:31.437Z,6.50
2018-03-18T05:08:00.011Z,6.50
2018-03-18T05:10:28.409Z,6.50
2018-03-18T05:12:56.867Z,6.50
2018-03-18T05:15:25.294Z,6.40
2018-03-18T05:18:01.632Z,6.50
2018-03-18T05:20:30.095Z,6.40
2018-03-18T05:23:05.231Z,6.60
2018-03-18T05:25:33.708Z,6.70
2018-03-18T05:28:02.009Z,6.90
2018-03-18T05:30:30.989Z,7.00
2018-03-18T05:33:06.561Z,7.10
2018-03-18T05:35:35.286Z,7.20
2018-03-18T05:38:04.491Z,7.20
2018-03-18T05:40:40.968Z,7.30
2018-03-18T05:43:09.280Z,7.30
2018-03-18T05:45:40.026Z,7.40
2018-03-18T05:48:09.001Z,7.50
2018-03-18T05:50:38.204Z,7.60
2018-03-18T05:53:06.610Z,7.60
2018-03-18T05:55:35.986Z,7.60
2018-03-18T05:58:05.257Z,7.60
2018-03-18T06:00:34.261Z,7.60
2018-03-18T06:03:02.729Z,7.70
2018-03-18T06:05:31.623Z,7.80
2018-03-18T06:08:00.004Z,7.70
2018-03-18T06:10:28.481Z,7.70
2018-03-18T06:12:56.786Z,7.60
2018-03-18T06:15:25.654Z,7.60
2018-03-18T06:17:54.170Z,7.50
2018-03-18T06:20:22.463Z,7.50
2018-03-18T06:22:50.997Z,7.60
2018-03-18T06:25:20.160Z,7.80
2018-03-18T06:27:58.036Z,8.20
2018-03-18T06:30:27.206Z,8.50
2018-03-18T06:32:55.664Z,8.50
2018-03-18T06:35:24.016Z,8.80
2018-03-18T06:37:52.627Z,9.00
2018-03-18T06:40:36.469Z,9.40
2018-03-18T06:43:05.047Z,9.70
2018-03-18T06:45:34.874Z,9.90
2018-03-18T06:48:03.446Z,10.20
2018-03-18T06:50:38.069Z,10.40
2018-03-18T06:53:06.409Z,10.60
2018-03-18T06:55:36.285Z,11.00
2018-03-18T06:58:04.840Z,11.30
2018-03-18T07:00:33.328Z,11.50
2018-03-18T07:03:01.754Z,11.50
2018-03-18T07:05:31.113Z,11.40
2018-03-18T07:07:59.544Z,11.40
2018-03-18T07:10:28.790Z,11.70
2018-03-18T07:13:06.029Z,11.70
2018-03-18T07:15:34.560Z,11.80
2018-03-18T07:18:03.545Z,11.90
2018-03-18T07:20:32.465Z,12.00
2018-03-18T07:23:02.487Z,12.10
2018-03-18T07:25:32.932Z,12.50
2018-03-18T07:28:16.620Z,12.60
2018-03-18T07:30:45.008Z,12.60
2018-03-18T07:33:13.331Z,12.70
2018-03-18T07:35:42.466Z,13.30
2018-03-18T07:38:11.217Z,13.30
2018-03-18T07:40:53.662Z,13.80
2018-03-18T07:43:22.040Z,14.40
2018-03-18T07:45:51.274Z,14.60
2018-03-18T07:48:21.363Z,14.70
2018-03-18T07:50:49.761Z,14.70
2018-03-18T07:53:26.100Z,14.80
2018-03-18T07:55:54.682Z,15.20
2018-03-18T07:58:23.094Z,15.50
2018-03-18T08:00:52.075Z,15.90
2018-03-18T08:03:20.411Z,16.30
2018-03-18T08:05:49.557Z,15.60
2018-03-18T08:08:32.336Z,15.50
2018-03-18T08:11:00.903Z,15.10
2018-03-18T08:13:29.362Z,15.50
2018-03-18T08:15:58.607Z,16.70
2018-03-18T08:18:27.278Z,16.70
2018-03-18T08:20:55.790Z,17.80
2018-03-18T08:23:24.276Z,18.20
2018-03-18T08:25:53.304Z,18.60
2018-03-18T08:28:23.163Z,18.20
2018-03-18T08:30:51.795Z,18.10
2018-03-18T08:33:20.171Z,17.80
2018-03-18T08:35:48.610Z,17.60
2018-03-18T08:38:17.254Z,17.20
2018-03-18T08:40:46.697Z,17.90
2018-03-18T08:43:16.960Z,18.00
2018-03-18T08:45:55.945Z,17.80
2018-03-18T08:48:24.374Z,17.80
2018-03-18T08:50:54.279Z,17.50
2018-03-18T08:53:25.791Z,17.10
2018-03-18T08:55:55.814Z,17.10
2018-03-18T08:58:24.291Z,16.90
2018-03-18T09:00:55.019Z,16.20
2018-03-18T09:03:23.496Z,16.00
2018-03-18T09:05:53.106Z,16.40
2018-03-18T09:08:21.462Z,16.10
2018-03-18T09:10:50.639Z,15.70
2018-03-18T09:13:19.797Z,15.30
2018-03-18T09:15:48.214Z,15.30
2018-03-18T09:18:18.197Z,15.70
2018-03-18T09:20:46.767Z,15.80
2018-03-18T09:23:15.150Z,17.00
2018-03-18T09:25:43.572Z,17.00
2018-03-18T09:28:12.819Z,16.90
2018-03-18T09:30:41.133Z,16.80
2018-03-18T09:33:09.581Z,17.80
2018-03-18T09:35:37.964Z,18.30
2018-03-18T09:38:06.651Z,18.70
2018-03-18T09:40:35.012Z,19.50
2018-03-18T09:43:03.908Z,18.50
2018-03-18T09:45:33.500Z,19.30
2018-03-18T09:48:01.947Z,20.20
2018-03-18T09:50:31.194Z,19.60
2018-03-18T09:53:09.671Z,19.50
2018-03-18T09:55:38.843Z,20.90
2018-03-18T09:58:07.187Z,20.90
2018-03-18T10:00:47.133Z,20.70
2018-03-18T10:03:15.472Z,19.90
2018-03-18T10:05:52.727Z,19.80
2018-03-18T10:08:28.689Z,20.10
2018-03-18T10:10:57.347Z,19.90
2018-03-18T10:13:26.233Z,19.90
2018-03-18T10:15:55.029Z,19.70
2018-03-18T10:18:24.131Z,19.00
2018-03-18T10:20:52.803Z,18.60
2018-03-18T10:23:21.748Z,19.80
2018-03-18T10:25:50.274Z,21.10
2018-03-18T10:28:18.754Z,21.60
2018-03-18T10:30:48.982Z,21.80
2018-03-18T10:33:20.846Z,21.30
2018-03-18T10:35:49.211Z,20.30
2018-03-18T10:38:17.644Z,18.90
